Time;durP1;ratioP1;P1;durP2;ratioP2;P2;SDS_P1;SDS_P2;PMS_P1;PMS_P2;Temp;Humidity;BMP_temperature;BMP_pressure;BME280_temperature;BME280_humidity;BME280_pressure;Samples;Min_cycle;Max_cycle;Signal;HPM_P1;HPM_P2
2023/01/19 00:00:28;;;;;;;;;;;16.00;43.00;;;;;;5135700;27;19923;-74
2023/01/19 00:02:53;;;;;;;;;;;15.90;42.90;;;;;;5135945;27;19922;-74
2023/01/19 00:05:19;;;;;;;;;;;16.00;43.00;;;;;;5154181;27;20274;-75
2023/01/19 00:07:45;;;;;;;;;;;16.00;42.90;;;;;;5154191;27;19919;-74
2023/01/19 00:10:11;;;;;;;;;;;16.00;42.90;;;;;;5135813;27;19919;-73
2023/01/19 00:12:36;;;;;;;;;;;16.00;42.90;;;;;;5135604;27;20293;-75
2023/01/19 00:15:02;;;;;;;;;;;16.00;42.90;;;;;;5135521;27;19962;-75
2023/01/19 00:17:28;;;;;;;;;;;16.00;42.90;;;;;;5135796;27;19926;-75
2023/01/19 00:19:53;;;;;;;;;;;16.00;42.90;;;;;;5135535;27;20047;-74
2023/01/19 00:22:19;;;;;;;;;;;15.90;42.90;;;;;;5135058;27;19937;-74
2023/01/19 00:24:44;;;;;;;;;;;15.90;42.90;;;;;;5135328;27;20011;-74
2023/01/19 00:27:13;;;;;;;;;;;15.90;42.90;;;;;;5135799;27;19919;-74
2023/01/19 00:29:38;;;;;;;;;;;15.90;43.00;;;;;;5135486;27;19919;-74
2023/01/19 00:32:04;;;;;;;;;;;15.90;43.00;;;;;;5153904;27;19972;-75
2023/01/19 00:34:38;;;;;;;;;;;15.90;43.00;;;;;;5152925;27;19926;-75
2023/01/19 00:37:05;;;;;;;;;;;15.90;42.90;;;;;;5135268;27;19930;-73
2023/01/19 00:39:31;;;;;;;;;;;15.90;42.90;;;;;;5135470;27;19926;-74
2023/01/19 00:44:42;;;;;;;;;;;16.30;42.70;;;;;;5139444;27;19926;-72
2023/01/19 00:47:07;;;;;;;;;;;16.50;42.30;;;;;;5139411;27;19919;-75
2023/01/19 00:49:33;;;;;;;;;;;16.70;42.10;;;;;;5139254;27;20014;-73
2023/01/19 00:51:58;;;;;;;;;;;17.00;41.60;;;;;;5157613;27;19926;-73
2023/01/19 00:54:24;;;;;;;;;;;17.40;41.20;;;;;;5139104;27;19958;-74
2023/01/19 00:56:49;;;;;;;;;;;17.80;40.70;;;;;;5139568;27;19989;-73
2023/01/19 00:59:15;;;;;;;;;;;18.20;40.00;;;;;;5157986;27;20339;-73
2023/01/19 01:01:41;;;;;;;;;;;18.70;39.20;;;;;;5139111;27;19930;-74
2023/01/19 01:04:06;;;;;;;;;;;19.10;38.50;;;;;;5139310;27;19967;-74
2023/01/19 01:06:32;;;;;;;;;;;19.50;38.00;;;;;;5139271;27;19977;-74
2023/01/19 01:08:57;;;;;;;;;;;19.90;38.10;;;;;;5139030;27;20389;-74
2023/01/19 01:11:23;;;;;;;;;;;20.20;36.90;;;;;;5157477;27;19923;-76
2023/01/19 01:13:49;;;;;;;;;;;20.40;36.50;;;;;;5157587;27;19926;-73
2023/01/19 01:16:15;;;;;;;;;;;20.70;36.20;;;;;;5138726;27;19956;-74
2023/01/19 01:18:41;;;;;;;;;;;20.80;35.70;;;;;;5139057;27;19969;-74
2023/01/19 01:21:07;;;;;;;;;;;21.00;35.60;;;;;;5156989;27;19929;-74
2023/01/19 01:23:33;;;;;;;;;;;21.20;35.30;;;;;;5138594;27;19919;-73
2023/01/19 01:25:59;;;;;;;;;;;21.30;35.00;;;;;;5157118;27;19915;-73
2023/01/19 01:28:24;;;;;;;;;;;21.40;35.00;;;;;;5138937;27;20445;-74
2023/01/19 01:30:54;;;;;;;;;;;21.50;34.80;;;;;;5138893;27;20285;-73
2023/01/19 01:33:20;;;;;;;;;;;21.60;34.40;;;;;;5151497;27;20005;-73
2023/01/19 01:35:46;;;;;;;;;;;21.70;34.30;;;;;;5159701;27;20013;-75
2023/01/19 01:38:11;;;;;;;;;;;21.70;34.30;;;;;;5159310;27;20422;-73
2023/01/19 01:40:39;;;;;;;;;;;21.70;34.30;;;;;;5177819;27;20463;-75
2023/01/19 01:43:09;;;;;;;;;;;21.70;34.20;;;;;;5159339;27;19923;-73
2023/01/19 01:45:37;;;;;;;;;;;21.70;34.30;;;;;;5159155;27;20159;-76
2023/01/19 01:48:21;;;;;;;;;;;21.60;34.30;;;;;;5177626;27;19919;-75
2023/01/19 01:53:34;;;;;;;;;;;21.80;34.20;;;;;;5158086;27;19954;-73
2023/01/19 01:56:01;;;;;;;;;;;21.90;34.10;;;;;;5167134;27;19926;-73
2023/01/19 01:58:27;;;;;;;;;;;22.00;34.20;;;;;;5137207;27;19926;-75
2023/01/19 02:03:38;;;;;;;;;;;22.20;33.80;;;;;;5156231;27;19920;-73
2023/01/19 02:06:06;;;;;;;;;;;22.30;33.70;;;;;;5137928;27;19979;-73
2023/01/19 02:14:09;;;;;;;;;;;22.40;33.20;;;;;;5137501;27;20618;-74
2023/01/19 02:16:36;;;;;;;;;;;22.50;33.20;;;;;;5138051;27;20001;-77
2023/01/19 02:19:02;;;;;;;;;;;22.50;33.20;;;;;;5137564;27;19923;-76
2023/01/19 02:24:08;;;;;;;;;;;22.50;33.20;;;;;;5121126;27;2044241;-72
2023/01/19 02:26:43;;;;;;;;;;;22.60;33.10;;;;;;5174396;27;19919;-72
2023/01/19 02:29:09;;;;;;;;;;;22.60;32.90;;;;;;5174685;27;19967;-72
2023/01/19 02:31:36;;;;;;;;;;;22.70;33.00;;;;;;5174338;27;19926;-72
2023/01/19 02:34:11;;;;;;;;;;;22.70;32.90;;;;;;5174475;27;20002;-72
2023/01/19 02:36:43;;;;;;;;;;;22.70;32.90;;;;;;5174606;27;19925;-72
2023/01/19 02:39:09;;;;;;;;;;;22.70;32.90;;;;;;5192921;27;20033;-72
2023/01/19 02:41:38;;;;;;;;;;;22.80;32.90;;;;;;5174497;27;20395;-72
2023/01/19 02:44:05;;;;;;;;;;;22.80;32.80;;;;;;5193026;27;19977;-72
2023/01/19 02:46:31;;;;;;;;;;;22.90;32.80;;;;;;5193042;27;20325;-72
2023/01/19 02:48:57;;;;;;;;;;;22.90;32.80;;;;;;5174079;27;19919;-74
2023/01/19 02:51:23;;;;;;;;;;;22.90;32.80;;;;;;5183534;27;19918;-73
2023/01/19 02:56:38;;;;;;;;;;;23.00;32.60;;;;;;5110297;27;19912;-71
2023/01/19 03:02:07;;;;;;;;;;;23.00;32.60;;;;;;5130685;27;19918;-73
2023/01/19 03:04:53;;;;;;;;;;;23.00;32.70;;;;;;5129569;28;19923;-72
2023/01/19 03:07:29;;;;;;;;;;;23.00;32.70;;;;;;5129615;28;19926;-75
2023/01/19 03:12:54;;;;;;;;;;;23.00;32.50;;;;;;5110433;27;19944;-71
2023/01/19 03:18:00;;;;;;;;;;;23.00;32.60;;;;;;5110280;27;19918;-74
2023/01/19 03:20:27;;;;;;;;;;;22.90;32.50;;;;;;5108951;28;19946;-75
2023/01/19 03:22:57;;;;;;;;;;;22.90;32.50;;;;;;5143329;27;19920;-72
2023/01/19 03:25:23;;;;;;;;;;;22.90;32.70;;;;;;5108535;28;19920;-75
2023/01/19 03:27:50;;;;;;;;;;;22.90;32.70;;;;;;5108345;28;19920;-72
2023/01/19 03:30:19;;;;;;;;;;;22.90;32.70;;;;;;5108833;28;19920;-72
2023/01/19 03:32:50;;;;;;;;;;;22.90;32.70;;;;;;5110117;28;20353;-74
2023/01/19 03:35:20;;;;;;;;;;;23.00;32.70;;;;;;5108643;28;19920;-72
2023/01/19 03:37:47;;;;;;;;;;;23.00;32.60;;;;;;5109074;28;20435;-71
2023/01/19 03:40:16;;;;;;;;;;;23.10;32.70;;;;;;5108861;28;19920;-73
2023/01/19 03:42:43;;;;;;;;;;;23.10;32.50;;;;;;5110015;28;19919;-72
2023/01/19 03:45:10;;;;;;;;;;;23.10;32.50;;;;;;5109822;28;20394;-72
2023/01/19 03:47:36;;;;;;;;;;;23.10;32.40;;;;;;5108812;28;19923;-72
2023/01/19 03:50:03;;;;;;;;;;;23.20;32.60;;;;;;5109730;28;20344;-74
2023/01/19 03:52:32;;;;;;;;;;;23.10;32.40;;;;;;5108628;28;19920;-72
2023/01/19 03:54:57;;;;;;;;;;;23.20;32.40;;;;;;5108650;28;19920;-71
2023/01/19 03:57:23;;;;;;;;;;;23.20;32.40;;;;;;5108137;28;19931;-73
2023/01/19 03:59:48;;;;;;;;;;;23.20;32.40;;;;;;5108591;28;19920;-72
2023/01/19 04:02:14;;;;;;;;;;;23.20;32.40;;;;;;5109437;28;19924;-72
2023/01/19 04:04:39;;;;;;;;;;;23.20;32.40;;;;;;5108550;28;19920;-73
2023/01/19 04:07:05;;;;;;;;;;;23.20;32.40;;;;;;5106695;28;20500;-73
2023/01/19 04:09:31;;;;;;;;;;;23.20;32.40;;;;;;5108892;28;19966;-72
2023/01/19 04:11:56;;;;;;;;;;;23.30;32.40;;;;;;5109464;28;19924;-72
2023/01/19 04:14:22;;;;;;;;;;;23.30;32.30;;;;;;5109328;28;19924;-73
2023/01/19 04:16:47;;;;;;;;;;;23.30;32.30;;;;;;5107550;28;19924;-73
2023/01/19 04:19:13;;;;;;;;;;;23.30;32.30;;;;;;5109175;28;19924;-74
2023/01/19 04:21:38;;;;;;;;;;;23.30;32.40;;;;;;5108065;28;20363;-72
2023/01/19 04:24:04;;;;;;;;;;;23.30;32.30;;;;;;5108952;28;19989;-72
2023/01/19 04:26:30;;;;;;;;;;;23.30;32.30;;;;;;5109067;28;20310;-74
2023/01/19 04:28:56;;;;;;;;;;;23.30;32.30;;;;;;5097757;28;20191;-72
2023/01/19 04:31:22;;;;;;;;;;;23.30;32.40;;;;;;5094093;28;19931;-74
2023/01/19 04:33:47;;;;;;;;;;;23.30;32.30;;;;;;5094225;28;19920;-71
2023/01/19 04:36:13;;;;;;;;;;;23.30;32.40;;;;;;5093888;28;19924;-71
2023/01/19 04:38:38;;;;;;;;;;;23.30;32.30;;;;;;5093798;28;19928;-73
2023/01/19 04:41:04;;;;;;;;;;;23.30;32.30;;;;;;5094167;28;19967;-72
2023/01/19 04:43:29;;;;;;;;;;;23.30;32.40;;;;;;5094101;28;19920;-72
2023/01/19 04:45:55;;;;;;;;;;;23.30;32.40;;;;;;5094115;28;19920;-72
2023/01/19 04:48:21;;;;;;;;;;;23.30;33.10;;;;;;5095122;28;19927;-74
2023/01/19 04:50:46;;;;;;;;;;;23.30;32.30;;;;;;5093828;28;20010;-72
2023/01/19 04:53:12;;;;;;;;;;;23.30;32.40;;;;;;5094878;28;19971;-72
2023/01/19 04:55:38;;;;;;;;;;;23.30;32.40;;;;;;5094682;28;19920;-71
2023/01/19 04:58:04;;;;;;;;;;;23.30;32.40;;;;;;5093548;28;19927;-72
2023/01/19 05:00:30;;;;;;;;;;;23.40;32.50;;;;;;5093590;28;19920;-74
2023/01/19 05:02:55;;;;;;;;;;;23.40;32.40;;;;;;5094875;28;19920;-72
2023/01/19 05:05:21;;;;;;;;;;;23.40;32.50;;;;;;5093385;28;20401;-74
2023/01/19 05:07:46;;;;;;;;;;;23.40;32.50;;;;;;5093361;28;19920;-73
2023/01/19 05:10:12;;;;;;;;;;;23.40;32.40;;;;;;5093241;28;19991;-72
2023/01/19 05:12:38;;;;;;;;;;;23.40;32.40;;;;;;5092931;28;19973;-74
2023/01/19 05:15:03;;;;;;;;;;;23.40;32.40;;;;;;5093213;28;20295;-73
2023/01/19 05:17:29;;;;;;;;;;;23.50;32.40;;;;;;5093021;28;19970;-73
2023/01/19 05:19:55;;;;;;;;;;;23.50;32.40;;;;;;5093340;28;19927;-73
2023/01/19 05:22:20;;;;;;;;;;;23.50;32.20;;;;;;5094372;28;19920;-73
2023/01/19 05:24:46;;;;;;;;;;;23.60;32.20;;;;;;5092975;28;19920;-72
2023/01/19 05:27:11;;;;;;;;;;;23.70;32.20;;;;;;5093206;28;19924;-72
2023/01/19 05:29:37;;;;;;;;;;;23.70;32.20;;;;;;5092910;28;20355;-72
2023/01/19 05:32:03;;;;;;;;;;;23.80;32.10;;;;;;5093100;28;19920;-72
2023/01/19 05:34:28;;;;;;;;;;;23.90;32.10;;;;;;5094032;28;20367;-73
2023/01/19 05:36:54;;;;;;;;;;;23.90;31.90;;;;;;5092542;28;20023;-74
2023/01/19 05:39:19;;;;;;;;;;;23.90;31.90;;;;;;5093625;28;20007;-73
2023/01/19 05:41:45;;;;;;;;;;;24.00;32.70;;;;;;5093944;28;19946;-74
2023/01/19 05:44:13;;;;;;;;;;;23.90;31.80;;;;;;5092615;28;19920;-74
2023/01/19 05:46:39;;;;;;;;;;;23.90;31.90;;;;;;5092916;28;20306;-74
2023/01/19 05:49:06;;;;;;;;;;;23.90;31.90;;;;;;5092565;28;20003;-74
2023/01/19 05:51:36;;;;;;;;;;;23.80;31.90;;;;;;5091763;28;19967;-74
2023/01/19 05:54:03;;;;;;;;;;;23.80;32.10;;;;;;5092626;28;19924;-72
2023/01/19 05:56:29;;;;;;;;;;;23.70;32.00;;;;;;5092484;28;19931;-72
2023/01/19 05:58:55;;;;;;;;;;;23.60;32.10;;;;;;5093885;28;20355;-72
2023/01/19 06:01:20;;;;;;;;;;;23.60;32.10;;;;;;5092523;28;19942;-75
2023/01/19 06:03:47;;;;;;;;;;;23.60;32.30;;;;;;5092571;28;20339;-73
2023/01/19 06:06:14;;;;;;;;;;;23.50;32.30;;;;;;5092162;28;20174;-73
2023/01/19 06:08:40;;;;;;;;;;;23.50;32.30;;;;;;5092225;28;19920;-72
2023/01/19 06:11:06;;;;;;;;;;;23.50;32.30;;;;;;5092380;28;19920;-75
2023/01/19 06:13:32;;;;;;;;;;;23.50;32.30;;;;;;5092094;28;19970;-74
2023/01/19 06:15:58;;;;;;;;;;;23.60;32.30;;;;;;5091772;28;19955;-73
2023/01/19 06:18:23;;;;;;;;;;;23.60;32.30;;;;;;5093239;28;19928;-74
2023/01/19 06:20:49;;;;;;;;;;;23.70;32.30;;;;;;5091911;28;19920;-74
2023/01/19 06:23:15;;;;;;;;;;;23.60;32.10;;;;;;5092245;28;19924;-72
2023/01/19 06:25:40;;;;;;;;;;;23.70;32.20;;;;;;5093190;28;20002;-73
2023/01/19 06:28:06;;;;;;;;;;;23.70;32.20;;;;;;5092037;28;20327;-74
2023/01/19 06:30:32;;;;;;;;;;;23.70;32.10;;;;;;5092215;28;20015;-74
2023/01/19 06:32:57;;;;;;;;;;;23.80;32.20;;;;;;5093122;28;19942;-72
2023/01/19 06:35:23;;;;;;;;;;;23.80;32.10;;;;;;5092909;28;20029;-75
2023/01/19 06:37:48;;;;;;;;;;;23.80;32.10;;;;;;5091649;28;20302;-72
2023/01/19 06:40:14;;;;;;;;;;;23.90;32.00;;;;;;5092924;28;19981;-72
2023/01/19 06:42:39;;;;;;;;;;;23.80;32.80;;;;;;5090867;28;19927;-72
2023/01/19 06:45:05;;;;;;;;;;;23.80;32.00;;;;;;5092666;28;19971;-76
2023/01/19 06:47:32;;;;;;;;;;;23.90;31.90;;;;;;5092630;28;19959;-75
2023/01/19 06:49:58;;;;;;;;;;;24.00;31.30;;;;;;5091082;28;19920;-71
2023/01/19 06:52:27;;;;;;;;;;;23.90;31.40;;;;;;5088205;28;20018;-74
2023/01/19 06:54:52;;;;;;;;;;;23.80;31.30;;;;;;5089156;28;20327;-74
2023/01/19 06:57:18;;;;;;;;;;;23.70;31.50;;;;;;5088000;28;19970;-75
2023/01/19 06:59:43;;;;;;;;;;;23.80;31.50;;;;;;5089149;28;20190;-75
2023/01/19 07:02:10;;;;;;;;;;;24.00;31.30;;;;;;5088525;28;20002;-70
2023/01/19 07:04:36;;;;;;;;;;;24.00;31.10;;;;;;5088567;28;19920;-75
2023/01/19 07:07:01;;;;;;;;;;;24.00;30.90;;;;;;5086616;28;19924;-74
2023/01/19 07:09:27;;;;;;;;;;;24.00;30.30;;;;;;5080515;28;19973;-70
2023/01/19 07:11:53;;;;;;;;;;;24.10;30.60;;;;;;5078321;28;19920;-70
2023/01/19 07:14:19;;;;;;;;;;;24.10;30.70;;;;;;5085570;28;20416;-74
2023/01/19 07:16:45;;;;;;;;;;;24.10;30.70;;;;;;5083484;28;20244;-73
2023/01/19 07:19:12;;;;;;;;;;;24.10;30.70;;;;;;5083518;28;19920;-74
2023/01/19 07:21:38;;;;;;;;;;;24.20;30.60;;;;;;5077431;28;20455;-70
2023/01/19 07:24:04;;;;;;;;;;;24.20;30.60;;;;;;5068394;28;19983;-73
2023/01/19 07:26:33;;;;;;;;;;;24.30;30.50;;;;;;5070677;28;19931;-74
2023/01/19 07:28:58;;;;;;;;;;;24.50;30.60;;;;;;5056704;28;19931;-74
2023/01/19 07:31:24;;;;;;;;;;;24.50;30.70;;;;;;5065826;28;20263;-76
2023/01/19 07:33:49;;;;;;;;;;;24.50;30.70;;;;;;5067154;28;20361;-77
2023/01/19 07:36:15;;;;;;;;;;;24.50;30.70;;;;;;5071085;28;19935;-77
2023/01/19 07:38:40;;;;;;;;;;;24.50;31.10;;;;;;5069549;28;19997;-77
2023/01/19 07:41:08;;;;;;;;;;;24.50;31.10;;;;;;5067359;28;19931;-77
2023/01/19 07:43:33;;;;;;;;;;;24.70;31.10;;;;;;5067862;28;19924;-74
2023/01/19 07:46:00;;;;;;;;;;;24.80;31.10;;;;;;5071826;28;19924;-70
2023/01/19 07:48:25;;;;;;;;;;;25.00;30.90;;;;;;5075231;28;20463;-73
2023/01/19 07:50:51;;;;;;;;;;;25.00;30.70;;;;;;5070332;28;19934;-69
2023/01/19 07:53:17;;;;;;;;;;;24.70;31.00;;;;;;5070651;28;20010;-69
2023/01/19 07:55:42;;;;;;;;;;;24.40;31.40;;;;;;5074650;28;19920;-72
2023/01/19 07:58:08;;;;;;;;;;;24.10;32.20;;;;;;5072814;28;20332;-73
2023/01/19 08:00:35;;;;;;;;;;;23.70;32.60;;;;;;5069865;28;19932;-73
2023/01/19 08:03:01;;;;;;;;;;;23.40;33.10;;;;;;5071252;28;20007;-72
2023/01/19 08:05:28;;;;;;;;;;;23.10;33.60;;;;;;5075582;28;19977;-75
2023/01/19 08:07:56;;;;;;;;;;;22.80;34.90;;;;;;5074700;28;19972;-75
2023/01/19 08:10:24;;;;;;;;;;;22.50;34.50;;;;;;5073540;28;19939;-76
2023/01/19 08:12:50;;;;;;;;;;;22.20;34.70;;;;;;5073793;28;20102;-75
2023/01/19 08:15:16;;;;;;;;;;;21.90;35.30;;;;;;5073866;28;19935;-76
2023/01/19 08:17:41;;;;;;;;;;;21.60;35.70;;;;;;5092577;28;19932;-75
2023/01/19 08:20:08;;;;;;;;;;;21.40;36.50;;;;;;5092679;28;19970;-75
2023/01/19 08:22:34;;;;;;;;;;;21.20;36.50;;;;;;5068404;28;19951;-75
2023/01/19 08:24:59;;;;;;;;;;;21.00;37.20;;;;;;5090863;28;19924;-69
2023/01/19 08:27:25;;;;;;;;;;;20.90;37.50;;;;;;5094940;28;19978;-73
2023/01/19 08:29:50;;;;;;;;;;;20.80;37.80;;;;;;5093188;28;19928;-72
2023/01/19 08:32:16;;;;;;;;;;;20.80;38.00;;;;;;5094705;28;19924;-74
2023/01/19 08:34:41;;;;;;;;;;;20.70;38.10;;;;;;5078981;28;19931;-72
2023/01/19 08:37:07;;;;;;;;;;;20.70;38.30;;;;;;5073153;28;19928;-72
2023/01/19 08:39:33;;;;;;;;;;;20.60;38.60;;;;;;5089893;28;19923;-71
2023/01/19 08:41:59;;;;;;;;;;;20.60;38.80;;;;;;5074809;28;19927;-71
2023/01/19 08:44:25;;;;;;;;;;;20.60;39.10;;;;;;5080149;28;20046;-77
2023/01/19 08:46:51;;;;;;;;;;;20.50;39.20;;;;;;5079523;28;19990;-77
2023/01/19 08:49:16;;;;;;;;;;;20.40;39.40;;;;;;5083401;28;20014;-70
2023/01/19 08:51:45;;;;;;;;;;;20.40;39.70;;;;;;5079880;28;20005;-72
2023/01/19 08:54:10;;;;;;;;;;;20.30;40.00;;;;;;5073834;28;19924;-75
2023/01/19 08:56:36;;;;;;;;;;;20.20;40.20;;;;;;5098272;28;19935;-74
2023/01/19 08:59:01;;;;;;;;;;;20.20;40.40;;;;;;5074481;28;19934;-72
2023/01/19 09:01:27;;;;;;;;;;;20.10;40.60;;;;;;5076132;28;19924;-76
2023/01/19 09:03:53;;;;;;;;;;;20.10;40.80;;;;;;5079932;28;19931;-74
2023/01/19 09:06:18;;;;;;;;;;;20.00;41.00;;;;;;5076885;28;20298;-73
2023/01/19 09:08:44;;;;;;;;;;;19.90;41.10;;;;;;5076362;28;19974;-74
2023/01/19 09:11:11;;;;;;;;;;;19.80;41.20;;;;;;5079241;28;19928;-74
2023/01/19 09:13:37;;;;;;;;;;;19.80;41.60;;;;;;5082574;28;19920;-75
2023/01/19 09:16:02;;;;;;;;;;;19.70;41.60;;;;;;5074834;28;19932;-75
2023/01/19 09:18:28;;;;;;;;;;;19.60;41.80;;;;;;5080468;28;19924;-71
2023/01/19 09:20:56;;;;;;;;;;;19.60;42.10;;;;;;5095513;28;20337;-72
2023/01/19 09:23:22;;;;;;;;;;;19.60;42.30;;;;;;5083572;28;20598;-74
2023/01/19 09:25:48;;;;;;;;;;;19.70;41.90;;;;;;5095741;28;19931;-72
2023/01/19 09:28:15;;;;;;;;;;;19.70;41.50;;;;;;5078278;28;20270;-70
2023/01/19 09:30:41;;;;;;;;;;;19.80;41.00;;;;;;5075907;28;20173;-71
2023/01/19 09:33:09;;;;;;;;;;;20.00;41.00;;;;;;5095311;28;20763;-73
2023/01/19 09:35:36;;;;;;;;;;;20.10;40.80;;;;;;5112914;27;19920;-72
2023/01/19 09:38:01;;;;;;;;;;;20.30;40.50;;;;;;5093844;28;19981;-70
2023/01/19 09:40:27;;;;;;;;;;;20.50;40.00;;;;;;5076601;28;19924;-76
2023/01/19 09:43:03;;;;;;;;;;;20.60;39.50;;;;;;5109560;27;20038;-76
2023/01/19 09:45:39;;;;;;;;;;;20.60;39.20;;;;;;5095585;28;20280;-76
2023/01/19 09:48:14;;;;;;;;;;;20.60;38.80;;;;;;5092254;28;19951;-75
2023/01/19 09:50:45;;;;;;;;;;;20.50;38.90;;;;;;5070337;28;19989;-74
2023/01/19 09:53:15;;;;;;;;;;;20.50;39.00;;;;;;5085015;28;19934;-75
2023/01/19 09:55:41;;;;;;;;;;;20.50;38.90;;;;;;5072032;28;19930;-78
2023/01/19 09:58:10;;;;;;;;;;;20.50;39.10;;;;;;5072554;28;20366;-77
2023/01/19 10:00:36;;;;;;;;;;;20.40;39.00;;;;;;5092569;28;20405;-78
2023/01/19 10:03:21;;;;;;;;;;;20.40;39.20;;;;;;5078618;28;19935;-72
2023/01/19 10:05:51;;;;;;;;;;;20.40;39.20;;;;;;5100904;27;19966;-74
2023/01/19 10:11:00;;;;;;;;;;;20.30;39.60;;;;;;5085810;27;20313;-75
2023/01/19 10:19:15;;;;;;;;;;;20.10;40.00;;;;;;5075852;27;20485;-73
2023/01/19 10:21:43;;;;;;;;;;;20.10;40.60;;;;;;5075188;28;19952;-73
2023/01/19 10:26:51;;;;;;;;;;;20.00;40.80;;;;;;5089985;27;19927;-72
2023/01/19 10:29:35;;;;;;;;;;;19.90;40.80;;;;;;5070308;28;20487;-70
2023/01/19 10:32:05;;;;;;;;;;;19.90;41.10;;;;;;5067192;28;19981;-75
2023/01/19 10:34:31;;;;;;;;;;;19.90;41.10;;;;;;5074280;28;19925;-73
2023/01/19 10:37:01;;;;;;;;;;;19.80;41.20;;;;;;5069862;28;19997;-70
2023/01/19 10:39:27;;;;;;;;;;;19.80;41.40;;;;;;5069003;28;20422;-74
2023/01/19 10:41:52;;;;;;;;;;;19.80;41.30;;;;;;5066143;28;19924;-74
2023/01/19 10:44:22;;;;;;;;;;;19.80;41.20;;;;;;5076085;28;19929;-74
2023/01/19 10:46:48;;;;;;;;;;;19.80;41.50;;;;;;5100736;27;19936;-75
2023/01/19 10:49:34;;;;;;;;;;;19.90;41.40;;;;;;5067986;28;19931;-76
2023/01/19 10:52:00;;;;;;;;;;;20.00;41.40;;;;;;5081384;28;19972;-81
2023/01/19 10:54:26;;;;;;;;;;;20.10;41.30;;;;;;5099551;27;19925;-72
2023/01/19 10:56:59;;;;;;;;;;;20.10;41.20;;;;;;5097585;27;19924;-76
2023/01/19 10:59:45;;;;;;;;;;;20.10;41.20;;;;;;5095871;27;19929;-70
2023/01/19 11:02:14;;;;;;;;;;;20.20;41.20;;;;;;5062680;28;20353;-73
2023/01/19 11:04:40;;;;;;;;;;;20.20;41.40;;;;;;5062845;28;20695;-73
2023/01/19 11:10:12;;;;;;;;;;;20.20;41.20;;;;;;5106031;27;1865219;-68
2023/01/19 11:12:41;;;;;;;;;;;20.10;41.40;;;;;;5153082;27;19923;-67
2023/01/19 11:15:12;;;;;;;;;;;20.10;41.50;;;;;;5153754;27;19919;-68
2023/01/19 11:17:41;;;;;;;;;;;20.00;41.30;;;;;;5152351;27;19925;-69
2023/01/19 11:20:17;;;;;;;;;;;20.00;41.40;;;;;;5149689;27;19927;-72
2023/01/19 11:22:42;;;;;;;;;;;20.00;41.40;;;;;;5146645;27;19926;-71
2023/01/19 11:25:18;;;;;;;;;;;20.00;41.40;;;;;;5167552;27;20525;-73
2023/01/19 11:27:47;;;;;;;;;;;20.00;41.10;;;;;;5148403;27;20017;-75
2023/01/19 11:32:59;;;;;;;;;;;20.00;40.80;;;;;;5055808;28;19927;-75
2023/01/19 11:35:34;;;;;;;;;;;19.90;40.80;;;;;;5054108;28;20291;-77
2023/01/19 11:38:17;;;;;;;;;;;19.90;40.80;;;;;;5057797;28;19949;-79
2023/01/19 11:40:49;;;;;;;;;;;19.90;40.70;;;;;;5056412;28;19936;-78
2023/01/19 11:43:14;;;;;;;;;;;19.90;39.80;;;;;;5069016;28;19936;-71
2023/01/19 11:45:44;;;;;;;;;;;19.90;39.90;;;;;;5061538;28;19924;-76
2023/01/19 11:48:14;;;;;;;;;;;19.90;40.10;;;;;;5053782;28;20419;-76
2023/01/19 11:50:42;;;;;;;;;;;19.90;40.00;;;;;;5067641;28;19974;-73
2023/01/19 11:53:28;;;;;;;;;;;19.90;40.00;;;;;;5046873;28;20266;-68
2023/01/19 11:55:55;;;;;;;;;;;20.00;40.10;;;;;;5045949;28;19932;-68
2023/01/19 11:58:22;;;;;;;;;;;20.10;40.10;;;;;;5053654;28;20315;-71
2023/01/19 12:00:51;;;;;;;;;;;20.20;40.20;;;;;;5047021;28;19929;-70
2023/01/19 12:03:29;;;;;;;;;;;20.30;40.40;;;;;;5051918;28;19924;-72
2023/01/19 12:05:57;;;;;;;;;;;20.30;40.10;;;;;;5054525;28;19929;-72
2023/01/19 12:08:26;;;;;;;;;;;20.30;40.10;;;;;;5052523;28;19982;-70
2023/01/19 12:10:53;;;;;;;;;;;20.30;39.90;;;;;;5054990;28;20551;-72
2023/01/19 12:13:20;;;;;;;;;;;20.30;40.00;;;;;;5052888;28;19924;-72
2023/01/19 12:15:46;;;;;;;;;;;20.30;40.10;;;;;;5066230;28;19960;-76
2023/01/19 12:18:15;;;;;;;;;;;20.20;40.10;;;;;;5053583;28;20274;-72
2023/01/19 12:20:43;;;;;;;;;;;20.30;40.20;;;;;;5051258;28;20299;-70
2023/01/19 12:25:57;;;;;;;;;;;20.20;40.20;;;;;;5067394;27;20504;-71
2023/01/19 12:28:26;;;;;;;;;;;20.20;40.30;;;;;;5082123;28;20176;-71
2023/01/19 12:30:52;;;;;;;;;;;20.10;40.20;;;;;;5064897;28;20286;-71
2023/01/19 12:33:19;;;;;;;;;;;20.10;40.70;;;;;;5096116;28;19932;-75
2023/01/19 12:35:53;;;;;;;;;;;20.10;40.60;;;;;;5099365;28;19935;-69
2023/01/19 12:38:39;;;;;;;;;;;20.10;40.70;;;;;;5070442;28;19931;-68
2023/01/19 12:41:14;;;;;;;;;;;20.10;40.80;;;;;;5062345;28;20313;-72
2023/01/19 12:43:40;;;;;;;;;;;20.00;41.10;;;;;;5071908;28;20023;-67
2023/01/19 12:46:25;;;;;;;;;;;20.10;40.70;;;;;;5068522;28;20094;-68
2023/01/19 12:49:05;;;;;;;;;;;20.10;40.70;;;;;;5102966;28;19975;-69
2023/01/19 12:51:31;;;;;;;;;;;20.10;40.90;;;;;;5069039;28;19929;-70
2023/01/19 12:53:58;;;;;;;;;;;20.10;40.80;;;;;;5062045;28;20398;-73
2023/01/19 12:56:39;;;;;;;;;;;20.10;40.80;;;;;;5065975;28;20417;-73
2023/01/19 12:59:05;;;;;;;;;;;20.20;41.00;;;;;;5099787;28;19970;-70
2023/01/19 13:01:30;;;;;;;;;;;20.20;40.90;;;;;;5096817;28;19925;-70
2023/01/19 13:04:02;;;;;;;;;;;20.20;40.90;;;;;;5070299;28;19932;-70
2023/01/19 13:06:47;;;;;;;;;;;20.20;41.00;;;;;;5067899;28;19924;-70
2023/01/19 13:09:29;;;;;;;;;;;20.20;40.80;;;;;;5070423;28;19924;-69
2023/01/19 13:12:14;;;;;;;;;;;20.20;40.80;;;;;;5063124;28;20029;-68
2023/01/19 13:14:41;;;;;;;;;;;20.20;40.70;;;;;;5100810;28;19933;-73
2023/01/19 13:17:25;;;;;;;;;;;20.20;40.70;;;;;;5066563;28;20415;-69
2023/01/19 13:19:53;;;;;;;;;;;20.20;40.70;;;;;;5067324;28;19924;-69
2023/01/19 13:22:38;;;;;;;;;;;20.20;40.80;;;;;;5064274;28;20638;-68
2023/01/19 13:27:41;;;;;;;;;;;20.20;40.60;;;;;;5068410;27;19940;-65
2023/01/19 13:30:09;;;;;;;;;;;20.20;40.90;;;;;;5064619;28;19924;-65
2023/01/19 13:32:35;;;;;;;;;;;20.20;40.80;;;;;;5050270;28;19931;-70
2023/01/19 13:35:01;;;;;;;;;;;20.20;41.00;;;;;;5064060;28;19925;-69
2023/01/19 13:37:32;;;;;;;;;;;20.20;40.90;;;;;;5096947;27;20402;-65
2023/01/19 13:39:58;;;;;;;;;;;20.30;41.00;;;;;;5096085;27;20019;-70
2023/01/19 13:42:28;;;;;;;;;;;20.30;41.00;;;;;;5096381;27;19928;-66
2023/01/19 13:44:57;;;;;;;;;;;20.30;40.90;;;;;;5063405;28;19928;-67
2023/01/19 13:47:25;;;;;;;;;;;20.30;41.00;;;;;;5063755;28;20036;-71
2023/01/19 13:49:54;;;;;;;;;;;20.30;40.90;;;;;;5064646;28;19928;-70
2023/01/19 13:52:28;;;;;;;;;;;20.40;41.30;;;;;;5095745;27;20400;-68
2023/01/19 13:54:55;;;;;;;;;;;20.30;41.10;;;;;;5084759;27;19928;-68
2023/01/19 13:57:29;;;;;;;;;;;20.30;41.30;;;;;;5082335;27;20286;-68
2023/01/19 14:03:07;;;;;;;;;;;20.20;41.30;;;;;;5073034;27;19927;-73
2023/01/19 14:05:33;;;;;;;;;;;20.20;41.60;;;;;;5047924;28;19975;-66
2023/01/19 14:10:45;;;;;;;;;;;20.30;41.30;;;;;;5097725;27;1862643;-69
2023/01/19 14:13:16;;;;;;;;;;;20.20;40.00;;;;;;5133447;27;20193;-70
2023/01/19 14:15:42;;;;;;;;;;;20.10;39.90;;;;;;5139069;27;19927;-69
2023/01/19 14:21:06;;;;;;;;;;;20.00;39.20;;;;;;5123253;27;19938;-66
2023/01/19 14:29:32;;;;;;;;;;;20.00;38.40;;;;;;5118733;27;19923;-70
2023/01/19 14:34:38;;;;;;;;;;;20.20;38.60;;;;;;4590786;27;15708167;-68
2023/01/19 14:37:11;;;;;;;;;;;20.20;38.30;;;;;;5154380;27;19922;-68
2023/01/19 14:39:42;;;;;;;;;;;20.30;38.00;;;;;;5176010;27;20242;-70
2023/01/19 14:42:13;;;;;;;;;;;20.40;38.20;;;;;;5152643;27;19919;-70
2023/01/19 14:44:39;;;;;;;;;;;20.50;38.20;;;;;;5168152;27;19915;-67
2023/01/19 14:47:05;;;;;;;;;;;20.60;38.10;;;;;;5149786;27;20251;-68
2023/01/19 14:49:34;;;;;;;;;;;20.60;38.00;;;;;;5148370;27;19997;-69
2023/01/19 14:52:01;;;;;;;;;;;20.70;38.00;;;;;;5147277;27;19915;-68
2023/01/19 14:54:37;;;;;;;;;;;20.70;37.80;;;;;;5148243;27;20381;-68
2023/01/19 14:57:02;;;;;;;;;;;20.60;37.80;;;;;;5165830;27;19942;-68
2023/01/19 14:59:28;;;;;;;;;;;20.60;37.90;;;;;;5171833;27;19919;-70
2023/01/19 15:01:54;;;;;;;;;;;20.60;38.20;;;;;;5148141;27;20235;-71
2023/01/19 15:04:19;;;;;;;;;;;20.60;38.40;;;;;;5170976;27;19925;-72
2023/01/19 15:06:48;;;;;;;;;;;20.50;38.70;;;;;;5157073;27;19967;-73
2023/01/19 15:09:14;;;;;;;;;;;20.60;38.90;;;;;;5170555;27;20309;-70
2023/01/19 15:11:45;;;;;;;;;;;20.60;39.40;;;;;;5144589;27;19919;-69
2023/01/19 15:14:12;;;;;;;;;;;20.50;39.50;;;;;;5150983;27;19919;-69
2023/01/19 15:16:38;;;;;;;;;;;20.50;39.70;;;;;;5156551;27;20248;-70
2023/01/19 15:19:04;;;;;;;;;;;20.40;40.00;;;;;;5156980;27;20021;-68
2023/01/19 15:21:30;;;;;;;;;;;20.30;40.60;;;;;;5152295;27;19958;-67
2023/01/19 15:23:57;;;;;;;;;;;20.30;41.30;;;;;;5153720;27;19918;-69
2023/01/19 15:26:23;;;;;;;;;;;20.20;41.60;;;;;;5150823;27;19914;-69